createdAt,value
2023-02-17T00:01:33.169Z,0.71
2023-02-17T00:04:00.870Z,-0.07
2023-02-17T00:06:29.939Z,1.76
2023-02-17T00:08:57.615Z,0.72
2023-02-17T00:11:24.186Z,1.16
2023-02-17T00:13:51.268Z,-0.21
2023-02-17T00:16:21.498Z,1.17
2023-02-17T00:18:56.368Z,0.88
2023-02-17T00:21:25.322Z,1.46
2023-02-17T00:23:52.762Z,-1.13
2023-02-17T00:26:20.449Z,0.43
2023-02-17T00:28:48.105Z,0.71
2023-02-17T00:31:17.957Z,0.80
2023-02-17T00:33:45.179Z,0.99
2023-02-17T00:36:14.669Z,1.00
2023-02-17T00:38:41.308Z,0.79
2023-02-17T00:41:07.917Z,1.28
2023-02-17T00:43:34.774Z,1.97
2023-02-17T00:46:04.243Z,2.15
2023-02-17T00:48:31.591Z,2.35
2023-02-17T00:50:58.429Z,1.56
2023-02-17T00:53:27.563Z,0.88
2023-02-17T00:55:54.188Z,1.46
2023-02-17T00:58:21.388Z,1.80
2023-02-17T01:00:48.062Z,1.33
2023-02-17T01:03:14.671Z,1.48
2023-02-17T01:05:46.530Z,1.74
2023-02-17T01:08:15.592Z,2.00
2023-02-17T01:10:44.636Z,2.69
2023-02-17T01:13:12.356Z,2.68
2023-02-17T01:15:45.028Z,2.10
2023-02-17T01:18:13.961Z,2.82
2023-02-17T01:20:41.598Z,1.13
2023-02-17T01:23:10.222Z,2.60
2023-02-17T01:25:38.033Z,2.78
2023-02-17T01:28:05.764Z,1.99
2023-02-17T01:30:32.499Z,2.90
2023-02-17T01:32:59.315Z,1.17
2023-02-17T01:35:25.872Z,2.94
2023-02-17T01:37:52.679Z,2.02
2023-02-17T01:40:19.597Z,2.80
2023-02-17T01:42:46.264Z,1.38
2023-02-17T01:45:19.015Z,2.99
2023-02-17T01:47:51.508Z,3.01
2023-02-17T01:50:20.751Z,2.27
2023-02-17T01:52:47.439Z,-0.19
2023-02-17T01:55:18.680Z,0.48
2023-02-17T01:57:46.767Z,1.28
2023-02-17T02:00:17.285Z,1.84
2023-02-17T02:02:47.398Z,2.78
2023-02-17T02:05:14.646Z,2.96
2023-02-17T02:07:44.301Z,1.72
2023-02-17T02:10:14.230Z,1.48
2023-02-17T02:12:42.637Z,2.67
2023-02-17T02:15:13.448Z,2.01
2023-02-17T02:17:58.561Z,2.94
2023-02-17T02:20:32.526Z,3.04
2023-02-17T02:23:27.091Z,2.97
2023-02-17T02:26:14.017Z,2.97
2023-02-17T02:29:03.977Z,2.97
2023-02-17T02:31:56.471Z,2.75
2023-02-17T02:34:33.256Z,0.20
2023-02-17T02:37:26.452Z,2.86
2023-02-17T02:39:55.368Z,2.59
2023-02-17T02:42:24.436Z,2.70
2023-02-17T02:44:51.394Z,2.85
2023-02-17T02:47:50.318Z,2.93
2023-02-17T02:50:42.972Z,3.07
2023-02-17T02:53:33.946Z,2.94
2023-02-17T02:56:13.467Z,3.09
2023-02-17T02:58:56.949Z,3.13
2023-02-17T03:02:06.030Z,3.16
2023-02-17T03:04:38.679Z,2.61
2023-02-17T03:07:21.164Z,2.37
2023-02-17T03:09:54.220Z,2.53
2023-02-17T03:12:22.261Z,2.28
2023-02-17T03:14:55.594Z,2.84
2023-02-17T03:17:22.761Z,3.25
2023-02-17T03:19:50.506Z,1.98
2023-02-17T03:22:33.658Z,3.31
2023-02-17T03:25:01.266Z,2.75
2023-02-17T03:27:28.258Z,1.53
2023-02-17T03:29:55.649Z,3.07
2023-02-17T03:32:22.457Z,3.00
2023-02-17T03:34:49.312Z,2.60
2023-02-17T03:37:16.271Z,3.06
2023-02-17T03:39:42.877Z,2.69
2023-02-17T03:42:09.484Z,3.20
2023-02-17T03:44:36.216Z,3.28
2023-02-17T03:47:02.782Z,3.34
2023-02-17T03:49:29.492Z,2.83
2023-02-17T03:51:56.028Z,2.82
2023-02-17T03:54:22.650Z,2.33
2023-02-17T03:56:49.243Z,2.33
2023-02-17T03:59:15.881Z,2.04
2023-02-17T04:01:42.482Z,3.21
2023-02-17T04:04:09.358Z,2.87
2023-02-17T04:06:36.037Z,3.05
2023-02-17T04:09:03.309Z,2.85
2023-02-17T04:11:29.925Z,3.38
2023-02-17T04:13:56.517Z,3.38
2023-02-17T04:16:23.142Z,2.87
2023-02-17T04:18:49.872Z,1.52
2023-02-17T04:21:16.613Z,2.79
2023-02-17T04:23:43.252Z,2.94
2023-02-17T04:26:09.880Z,2.52
2023-02-17T04:28:41.915Z,3.07
2023-02-17T04:31:08.972Z,2.26
2023-02-17T04:33:35.735Z,2.53
2023-02-17T04:36:02.463Z,3.11
2023-02-17T04:38:30.950Z,3.17
2023-02-17T04:40:58.896Z,3.12
2023-02-17T04:43:27.206Z,3.09
2023-02-17T04:45:54.381Z,2.40
2023-02-17T04:48:21.549Z,3.29
2023-02-17T04:50:48.396Z,3.23
2023-02-17T04:53:15.280Z,3.15
2023-02-17T04:55:42.742Z,2.87
2023-02-17T04:58:09.581Z,3.05
2023-02-17T05:00:39.292Z,3.21
2023-02-17T05:03:05.897Z,3.29
2023-02-17T05:05:32.571Z,3.00
2023-02-17T05:07:59.292Z,2.71
2023-02-17T05:10:26.151Z,2.24
2023-02-17T05:12:52.869Z,1.90
2023-02-17T05:15:19.754Z,2.30
2023-02-17T05:17:46.761Z,2.82
2023-02-17T05:20:13.449Z,3.24
2023-02-17T05:22:40.077Z,3.28
2023-02-17T05:25:07.229Z,2.67
2023-02-17T05:27:34.336Z,3.21
2023-02-17T05:30:01.212Z,3.31
2023-02-17T05:32:28.032Z,2.90
2023-02-17T05:34:54.667Z,1.25
2023-02-17T05:37:21.234Z,1.96
2023-02-17T05:39:47.820Z,3.10
2023-02-17T05:42:14.556Z,3.22
2023-02-17T05:44:41.174Z,2.99
2023-02-17T05:47:07.782Z,3.13
2023-02-17T05:49:34.512Z,3.02
2023-02-17T05:52:02.024Z,2.80
2023-02-17T05:54:28.658Z,3.26
2023-02-17T05:56:55.235Z,2.52
2023-02-17T05:59:21.970Z,2.00
2023-02-17T06:01:48.721Z,2.69
2023-02-17T06:04:15.399Z,3.32
2023-02-17T06:06:42.119Z,2.84
2023-02-17T06:09:08.982Z,3.31
2023-02-17T06:11:35.521Z,2.46
2023-02-17T06:14:02.144Z,2.96
2023-02-17T06:16:40.606Z,2.25
2023-02-17T06:19:14.781Z,3.02
2023-02-17T06:21:41.456Z,2.81
2023-02-17T06:24:08.006Z,3.06
2023-02-17T06:26:34.595Z,2.93
2023-02-17T06:29:01.145Z,3.16
2023-02-17T06:31:27.853Z,3.15
2023-02-17T06:33:54.523Z,3.02
2023-02-17T06:36:21.180Z,2.90
2023-02-17T06:38:47.870Z,3.11
2023-02-17T06:41:14.531Z,3.30
2023-02-17T06:43:41.149Z,2.38
2023-02-17T06:46:08.127Z,3.19
2023-02-17T06:48:35.102Z,3.34
2023-02-17T06:51:01.829Z,2.69
2023-02-17T06:53:28.496Z,2.08
2023-02-17T06:55:55.131Z,2.27
2023-02-17T06:58:21.805Z,3.35
2023-02-17T07:00:48.426Z,3.19
2023-02-17T07:03:15.041Z,3.15
2023-02-17T07:05:41.708Z,3.27
2023-02-17T07:08:08.360Z,3.39
2023-02-17T07:10:37.499Z,3.40
2023-02-17T07:13:04.261Z,3.20
2023-02-17T07:15:30.848Z,1.78
2023-02-17T07:17:57.471Z,3.30
2023-02-17T07:20:24.168Z,3.47
2023-02-17T07:22:51.201Z,3.58
2023-02-17T07:25:17.899Z,3.63
2023-02-17T07:27:44.522Z,2.44
2023-02-17T07:30:11.668Z,3.66
2023-02-17T07:32:38.314Z,3.71
2023-02-17T07:35:05.125Z,2.93
2023-02-17T07:37:31.736Z,2.84
2023-02-17T07:39:58.374Z,3.04
2023-02-17T07:42:27.512Z,3.29
2023-02-17T07:44:54.139Z,3.78
2023-02-17T07:47:20.717Z,3.79
2023-02-17T07:49:47.328Z,3.78
2023-02-17T07:52:19.514Z,3.79
2023-02-17T07:54:47.220Z,3.83
2023-02-17T07:57:13.843Z,3.81
2023-02-17T07:59:40.478Z,3.25
2023-02-17T08:02:07.223Z,3.62
2023-02-17T08:04:33.909Z,3.25
2023-02-17T08:07:00.526Z,1.74
2023-02-17T08:09:45.622Z,3.06
2023-02-17T08:12:35.219Z,3.29
2023-02-17T08:15:02.114Z,3.43
2023-02-17T08:17:29.980Z,3.35
2023-02-17T08:19:56.594Z,3.75
2023-02-17T08:22:23.166Z,3.72
2023-02-17T08:24:50.728Z,3.91
2023-02-17T08:27:18.626Z,3.96
2023-02-17T08:29:45.870Z,3.97
2023-02-17T08:32:14.873Z,4.00
2023-02-17T08:34:41.783Z,3.96
2023-02-17T08:37:09.444Z,3.86
2023-02-17T08:39:37.077Z,3.71
2023-02-17T08:42:04.577Z,2.41
2023-02-17T08:44:35.630Z,3.61
2023-02-17T08:47:02.465Z,3.88
2023-02-17T08:49:31.986Z,3.88
2023-02-17T08:51:59.723Z,3.84
2023-02-17T08:54:26.378Z,3.63
2023-02-17T08:56:53.169Z,3.97
2023-02-17T08:59:19.860Z,2.65
2023-02-17T09:01:46.689Z,3.99
2023-02-17T09:04:14.716Z,3.20
2023-02-17T09:06:45.801Z,4.05
2023-02-17T09:09:14.724Z,4.08
2023-02-17T09:11:41.501Z,3.71
2023-02-17T09:14:08.753Z,4.01
2023-02-17T09:16:36.203Z,4.11
2023-02-17T09:19:03.737Z,1.37
2023-02-17T09:21:30.415Z,1.79
2023-02-17T09:23:57.224Z,4.10
2023-02-17T09:26:24.059Z,3.81
2023-02-17T09:28:50.775Z,4.03
2023-02-17T09:31:24.418Z,3.56
2023-02-17T09:33:51.791Z,4.09
2023-02-17T09:36:21.686Z,4.09
2023-02-17T09:38:49.205Z,4.13
2023-02-17T09:41:23.618Z,3.27
2023-02-17T09:43:51.958Z,4.12
2023-02-17T09:46:27.553Z,3.98
2023-02-17T09:49:00.127Z,2.96
2023-02-17T09:51:33.219Z,1.62
2023-02-17T09:54:08.297Z,3.67
2023-02-17T09:56:40.030Z,4.06
2023-02-17T09:59:32.614Z,4.02
2023-02-17T10:02:00.176Z,3.79
2023-02-17T10:04:43.920Z,4.01
2023-02-17T10:07:26.437Z,4.05
2023-02-17T10:10:05.821Z,3.23
2023-02-17T10:12:41.246Z,3.90
2023-02-17T10:15:17.898Z,3.95
2023-02-17T10:18:06.341Z,3.86
2023-02-17T10:20:59.753Z,3.96
2023-02-17T10:23:28.412Z,3.87
2023-02-17T10:26:39.329Z,3.88
2023-02-17T10:29:25.145Z,3.79
2023-02-17T10:32:26.198Z,3.83
2023-02-17T10:35:13.602Z,3.92
2023-02-17T10:38:06.672Z,3.93
2023-02-17T10:40:33.929Z,3.94
2023-02-17T10:43:07.284Z,1.15
2023-02-17T10:45:45.293Z,3.97
2023-02-17T10:48:28.324Z,3.90
2023-02-17T10:51:00.015Z,3.56
2023-02-17T10:53:34.121Z,3.82
2023-02-17T10:56:04.261Z,3.25
2023-02-17T10:58:37.820Z,3.89
2023-02-17T11:01:06.377Z,2.97
2023-02-17T11:03:34.573Z,3.44
2023-02-17T11:06:04.506Z,3.07
2023-02-17T11:08:37.128Z,3.76
2023-02-17T11:11:29.346Z,3.76
2023-02-17T11:14:10.752Z,3.76
2023-02-17T11:16:42.458Z,3.74
2023-02-17T11:19:23.306Z,3.85
2023-02-17T11:21:52.477Z,3.26
2023-02-17T11:24:19.557Z,3.90
2023-02-17T11:27:00.061Z,3.68
2023-02-17T11:29:27.773Z,3.28
2023-02-17T11:31:55.770Z,3.44
2023-02-17T11:34:25.512Z,2.91
2023-02-17T11:37:14.062Z,3.97
2023-02-17T11:39:46.131Z,3.96
2023-02-17T11:42:29.577Z,3.94
2023-02-17T11:44:58.927Z,2.73
2023-02-17T11:47:46.689Z,3.94
2023-02-17T11:50:41.431Z,3.89
2023-02-17T11:53:32.307Z,3.93
2023-02-17T11:56:08.384Z,3.94
2023-02-17T11:59:20.005Z,3.99
2023-02-17T12:02:05.658Z,4.08
2023-02-17T12:04:47.724Z,4.06
2023-02-17T12:07:26.404Z,4.08
2023-02-17T12:10:13.560Z,4.02
2023-02-17T12:13:24.444Z,4.03
2023-02-17T12:16:03.580Z,4.04
2023-02-17T12:19:00.706Z,3.99
2023-02-17T12:21:36.347Z,3.99
2023-02-17T12:24:20.751Z,4.03
2023-02-17T12:26:54.245Z,3.08
2023-02-17T12:29:41.363Z,3.65
2023-02-17T12:32:26.682Z,3.86
2023-02-17T12:35:01.462Z,3.93
2023-02-17T12:37:32.153Z,2.90
2023-02-17T12:40:15.263Z,3.54
2023-02-17T12:42:57.868Z,3.40
2023-02-17T12:45:35.851Z,3.46
2023-02-17T12:48:34.004Z,3.61
2023-02-17T12:51:09.291Z,2.26
2023-02-17T12:54:08.393Z,3.48
2023-02-17T12:56:48.768Z,2.74
2023-02-17T12:59:22.443Z,2.60
2023-02-17T13:01:54.806Z,3.29
2023-02-17T13:04:24.960Z,3.23
2023-02-17T13:07:04.006Z,3.00
2023-02-17T13:09:35.851Z,3.43
2023-02-17T13:12:09.816Z,3.46
2023-02-17T13:14:42.570Z,3.42
2023-02-17T13:17:37.150Z,3.45
2023-02-17T13:20:25.619Z,2.62
2023-02-17T13:23:04.775Z,3.07
2023-02-17T13:25:37.392Z,2.31
2023-02-17T13:28:18.744Z,3.25
2023-02-17T13:30:48.208Z,3.31
2023-02-17T13:33:20.645Z,3.29
2023-02-17T13:35:48.117Z,-1.12
2023-02-17T13:38:26.592Z,2.96
2023-02-17T13:40:59.327Z,2.98
2023-02-17T13:43:28.136Z,2.34
2023-02-17T13:46:01.321Z,2.80
2023-02-17T13:48:31.088Z,2.86
2023-02-17T13:51:06.387Z,2.68
2023-02-17T13:53:42.784Z,2.78
2023-02-17T13:56:26.688Z,2.63
2023-02-17T13:58:53.741Z,2.53
2023-02-17T14:01:27.362Z,2.76
2023-02-17T14:03:56.280Z,2.93
2023-02-17T14:06:44.482Z,3.12
2023-02-17T14:09:30.562Z,3.22
2023-02-17T14:12:02.024Z,2.97
2023-02-17T14:14:41.079Z,2.62
2023-02-17T14:17:30.000Z,2.60
2023-02-17T14:20:00.943Z,3.35
2023-02-17T14:22:32.639Z,3.28
2023-02-17T14:25:06.825Z,3.18
2023-02-17T14:27:44.774Z,0.85
2023-02-17T14:30:27.378Z,2.83
2023-02-17T14:33:06.230Z,3.07
2023-02-17T14:35:35.239Z,3.01
2023-02-17T14:38:22.030Z,3.19
2023-02-17T14:40:49.099Z,3.22
2023-02-17T14:43:15.822Z,2.28
2023-02-17T14:45:43.812Z,2.93
2023-02-17T14:48:10.546Z,2.70
2023-02-17T14:50:42.850Z,2.51
2023-02-17T14:53:26.394Z,-0.36
2023-02-17T14:56:25.146Z,0.66
2023-02-17T14:58:53.125Z,2.51
2023-02-17T15:01:22.143Z,2.36
2023-02-17T15:03:49.150Z,2.19
2023-02-17T15:06:17.604Z,2.29
2023-02-17T15:08:45.949Z,2.33
2023-02-17T15:11:28.842Z,1.17
2023-02-17T15:13:55.643Z,1.63
2023-02-17T15:16:22.393Z,2.11
2023-02-17T15:18:50.928Z,0.57
2023-02-17T15:21:34.281Z,1.99
2023-02-17T15:24:02.619Z,1.83
2023-02-17T15:26:33.035Z,1.36
2023-02-17T15:28:59.982Z,1.77
2023-02-17T15:31:29.858Z,1.75
2023-02-17T15:33:58.460Z,1.41
2023-02-17T15:36:26.397Z,1.00
2023-02-17T15:38:53.139Z,1.72
2023-02-17T15:41:25.798Z,0.60
2023-02-17T15:43:54.721Z,1.54
2023-02-17T15:46:26.181Z,1.77
2023-02-17T15:48:52.876Z,1.86
2023-02-17T15:51:19.944Z,1.92
2023-02-17T15:53:47.228Z,1.85
2023-02-17T15:56:25.840Z,0.62
2023-02-17T15:58:53.517Z,1.45
2023-02-17T16:01:29.257Z,1.23
2023-02-17T16:03:57.456Z,1.86
2023-02-17T16:06:28.205Z,1.59
2023-02-17T16:08:55.524Z,1.78
2023-02-17T16:11:24.481Z,0.55
2023-02-17T16:13:51.649Z,1.68
2023-02-17T16:16:21.821Z,0.72
2023-02-17T16:18:49.290Z,2.24
2023-02-17T16:21:16.441Z,1.08
2023-02-17T16:23:43.776Z,2.08
2023-02-17T16:26:22.984Z,0.75
2023-02-17T16:28:49.832Z,1.66
2023-02-17T16:31:16.550Z,1.74
2023-02-17T16:33:43.291Z,0.95
2023-02-17T16:36:14.537Z,0.91
2023-02-17T16:38:43.469Z,2.09
2023-02-17T16:41:14.581Z,0.93
2023-02-17T16:43:42.169Z,1.85
2023-02-17T16:46:29.627Z,2.35
2023-02-17T16:48:58.498Z,2.43
2023-02-17T16:51:25.916Z,1.70
2023-02-17T16:53:53.097Z,1.89
2023-02-17T16:56:34.387Z,1.94
2023-02-17T16:59:01.318Z,2.72
2023-02-17T17:01:27.998Z,2.54
2023-02-17T17:03:54.605Z,1.68
2023-02-17T17:06:25.253Z,1.77
2023-02-17T17:08:53.016Z,2.33
2023-02-17T17:11:22.575Z,1.92
2023-02-17T17:13:49.756Z,1.43
2023-02-17T17:16:22.133Z,2.37
2023-02-17T17:18:49.362Z,2.73
2023-02-17T17:21:17.672Z,2.19
2023-02-17T17:23:46.369Z,2.00
2023-02-17T17:26:25.250Z,3.04
2023-02-17T17:28:52.364Z,2.80
2023-02-17T17:31:20.167Z,2.42
2023-02-17T17:33:48.126Z,2.92
2023-02-17T17:36:23.576Z,2.98
2023-02-17T17:38:51.901Z,3.11
2023-02-17T17:41:19.534Z,1.93
2023-02-17T17:43:46.985Z,3.24
2023-02-17T17:46:19.769Z,2.71
2023-02-17T17:48:46.832Z,3.13
2023-02-17T17:51:16.361Z,2.17
2023-02-17T17:53:43.996Z,3.34
2023-02-17T17:56:16.037Z,3.23
2023-02-17T17:58:43.369Z,3.32
2023-02-17T18:01:11.340Z,3.21
2023-02-17T18:03:39.161Z,2.17
2023-02-17T18:06:08.388Z,2.89
2023-02-17T18:08:36.661Z,2.04
2023-02-17T18:11:03.777Z,1.67
2023-02-17T18:13:31.649Z,2.41
2023-02-17T18:15:58.536Z,2.41
2023-02-17T18:18:25.316Z,2.93
2023-02-17T18:20:51.987Z,2.04
2023-02-17T18:23:18.667Z,2.01
2023-02-17T18:25:45.237Z,2.65
2023-02-17T18:28:11.938Z,2.54
2023-02-17T18:30:38.552Z,2.84
2023-02-17T18:33:05.460Z,2.88
2023-02-17T18:35:36.903Z,2.01
2023-02-17T18:38:03.619Z,2.23
2023-02-17T18:40:30.901Z,2.94
2023-02-17T18:42:57.889Z,2.82
2023-02-17T18:45:26.163Z,2.85
2023-02-17T18:47:52.856Z,0.64
2023-02-17T18:50:19.743Z,2.03
2023-02-17T18:52:46.543Z,2.67
2023-02-17T18:55:13.712Z,2.55
2023-02-17T18:57:40.507Z,2.58
2023-02-17T19:00:10.750Z,1.90
2023-02-17T19:02:38.170Z,2.01
2023-02-17T19:05:05.798Z,1.42
2023-02-17T19:07:33.694Z,2.15
2023-02-17T19:10:00.404Z,2.38
2023-02-17T19:12:27.195Z,2.51
2023-02-17T19:14:56.180Z,2.28
2023-02-17T19:17:23.752Z,1.42
2023-02-17T19:19:50.904Z,2.52
2023-02-17T19:22:18.186Z,2.25
2023-02-17T19:24:45.425Z,2.45
2023-02-17T19:27:13.324Z,0.20
2023-02-17T19:29:40.593Z,2.31
2023-02-17T19:32:07.289Z,2.69
2023-02-17T19:34:33.962Z,2.83
2023-02-17T19:37:00.905Z,2.78
2023-02-17T19:39:27.479Z,2.78
2023-02-17T19:41:54.040Z,1.74
2023-02-17T19:44:20.643Z,2.65
2023-02-17T19:46:47.357Z,2.60
2023-02-17T19:49:14.106Z,2.68
2023-02-17T19:51:41.040Z,1.72
2023-02-17T19:54:07.594Z,2.71
2023-02-17T19:56:36.208Z,1.53
2023-02-17T19:59:02.849Z,2.02
2023-02-17T20:01:31.848Z,1.66
2023-02-17T20:04:01.466Z,2.80
2023-02-17T20:06:34.743Z,2.90
2023-02-17T20:09:08.014Z,2.78
2023-02-17T20:11:34.744Z,2.82
2023-02-17T20:14:02.416Z,2.89
2023-02-17T20:16:29.896Z,2.97
2023-02-17T20:18:56.721Z,2.83
2023-02-17T20:21:28.385Z,2.78
2023-02-17T20:23:55.743Z,2.84
2023-02-17T20:26:26.265Z,3.00
2023-02-17T20:28:53.009Z,3.00
2023-02-17T20:31:20.325Z,2.38
2023-02-17T20:33:48.229Z,3.00
2023-02-17T20:36:14.915Z,1.44
2023-02-17T20:38:41.640Z,3.07
2023-02-17T20:41:13.946Z,2.78
2023-02-17T20:43:41.083Z,3.16
2023-02-17T20:46:08.102Z,3.13
2023-02-17T20:48:35.069Z,3.18
2023-02-17T20:51:03.942Z,2.91
2023-02-17T20:53:30.673Z,3.13
2023-02-17T20:55:57.388Z,2.98
2023-02-17T20:58:23.964Z,3.19
2023-02-17T21:00:50.895Z,3.21
2023-02-17T21:03:17.605Z,3.18
2023-02-17T21:05:44.229Z,3.13
2023-02-17T21:08:12.229Z,1.15
2023-02-17T21:10:40.324Z,2.39
2023-02-17T21:13:06.952Z,2.79
2023-02-17T21:15:33.758Z,1.10
2023-02-17T21:18:00.344Z,3.36
2023-02-17T21:20:26.877Z,3.39
2023-02-17T21:22:54.678Z,3.23
2023-02-17T21:25:21.351Z,3.40
2023-02-17T21:27:47.940Z,3.38
2023-02-17T21:30:14.934Z,2.70
2023-02-17T21:32:42.485Z,3.58
2023-02-17T21:35:10.608Z,3.39
2023-02-17T21:37:38.909Z,2.12
2023-02-17T21:40:07.769Z,3.37
2023-02-17T21:42:55.726Z,3.19
2023-02-17T21:45:23.142Z,3.09
2023-02-17T21:47:49.849Z,3.33
2023-02-17T21:50:18.009Z,3.19
2023-02-17T21:52:44.857Z,3.32
2023-02-17T21:55:11.467Z,3.45
2023-02-17T21:57:38.013Z,3.48
2023-02-17T22:00:05.417Z,3.49
2023-02-17T22:02:39.206Z,2.96
2023-02-17T22:05:06.733Z,2.75
2023-02-17T22:07:33.503Z,3.02
2023-02-17T22:10:00.191Z,3.18
2023-02-17T22:12:26.760Z,3.27
2023-02-17T22:14:53.466Z,3.31
2023-02-17T22:17:20.097Z,2.52
2023-02-17T22:19:46.841Z,3.29
2023-02-17T22:22:13.547Z,2.96
2023-02-17T22:24:40.197Z,2.60
2023-02-17T22:27:06.863Z,2.92
2023-02-17T22:29:33.428Z,2.83
2023-02-17T22:32:00.134Z,2.88
2023-02-17T22:34:27.642Z,2.24
2023-02-17T22:36:54.553Z,1.84
2023-02-17T22:39:21.140Z,2.90
2023-02-17T22:41:47.789Z,2.99
2023-02-17T22:44:14.459Z,2.72
2023-02-17T22:46:41.114Z,2.85
2023-02-17T22:49:07.753Z,2.76
2023-02-17T22:51:37.519Z,2.92
2023-02-17T22:54:05.278Z,2.85
2023-02-17T22:56:32.940Z,3.12
2023-02-17T22:59:01.525Z,2.62
2023-02-17T23:01:31.109Z,2.91
2023-02-17T23:03:57.939Z,3.17
2023-02-17T23:06:28.163Z,2.19
2023-02-17T23:08:55.416Z,3.00
2023-02-17T23:11:43.971Z,2.19
2023-02-17T23:14:12.238Z,3.05
2023-02-17T23:16:39.596Z,1.62
2023-02-17T23:19:11.493Z,2.74
2023-02-17T23:21:41.806Z,2.49
2023-02-17T23:24:08.361Z,2.76
2023-02-17T23:26:34.921Z,2.96
2023-02-17T23:29:01.507Z,2.91
2023-02-17T23:31:28.406Z,2.74
2023-02-17T23:33:55.135Z,2.72
2023-02-17T23:36:21.739Z,1.97
2023-02-17T23:38:48.356Z,2.61
2023-02-17T23:41:14.968Z,-0.39
2023-02-17T23:43:41.613Z,2.85
2023-02-17T23:46:08.639Z,1.92
2023-02-17T23:48:35.532Z,2.33
2023-02-17T23:51:05.685Z,2.71
2023-02-17T23:53:32.784Z,2.48
2023-02-17T23:56:05.829Z,2.82
2023-02-17T23:58:33.800Z,2.75
